Lewiston, ID (83501)

1:34 AM PDT on September 21, 2014 (GMT -0700)
Normal Hill Weather Station | Change Station
CLOSE
Current Station
Personal Weather Station
Location: Lewiston, ID
Elevation: 805 ft
Nearby Weather Stations
Active Advisory: Air Quality Alert

Elev 805 ft 46.42 °N, 117.03 °W | Updated 4 seconds ago

Clear
Clear
61.9 °F
Feels Like 61.9 °F
N
0.0
Wind Variable Wind from ESE
Gusts 0.0 mph

Today
High -- | Low -- °F
--% Chance of Precip.
Yesterday
High -- | Low -- °F
Precip. -- in
6:33 AM 6:47 PM
Waning Crescent, 8% visible
Pressure 29.95 in
Visibility 10.0 miles
Clouds Clear
Dew Point 12 °F
Humidity 14%
Rainfall 0.00 in
Snow Depth Not available.
UV 0 out of 12
Pollen 7.70 out of 12
Air Quality Not available.
Flu Activity Not available.
METAR KLWS 210756Z AUTO 00000KT 10SM CLR 20/03 A2998 RMK AO2 SLP142 T02000033 403170122

More Conditions Fewer Conditions

Pressure 29.95 in
Visibility 10.0 miles
Clouds Clear
Dew Point 12 °F
Humidity 14%
Rainfall 0.00 in
Snow Depth Not available.
UV 0 out of 12
Pollen 7.70 out of 12
Air Quality Not available.
Flu Activity Not available.
METAR KLWS 210756Z AUTO 00000KT 10SM CLR 20/03 A2998 RMK AO2 SLP142 T02000033 403170122

More Conditions Fewer Conditions

10-Day Weather Forecast

Almanac

Astronomy

Sep. 21, 2014 Rise Set
Actual Time 6:33 AM PDT 6:47 PM PDT
Civil Twilight 6:03 AM PDT 7:17 PM PDT
Nautical Twilight 5:28 AM PDT 7:52 PM PDT
Astronomical Twilight 4:51 AM PDT 8:29 PM PDT
Moon 4:05 AM PDT 5:30 PM PDT
Length of Visible Light 13h 13m
Length of Day
12h 13m
Tomorrow will be 3m 16s shorter.
Waning Crescent, 8% of the Moon is Illuminated
Today
Waning Crescent
Sep 24
New
Oct 1
First Quarter
Oct 8
Full
Oct 15
Last Quarter

Today's Extremes

State Highs State Lows

Community

WunderPhotos

Upload Photos

1,755,101 photos uploaded!

Nearby

Snow Depth

Station Depth Elevation
Camas Creek Divide 0 in 5710 ft
Lost-Wood Divide 0 in 7900 ft
Hidden Lake 1 in 5040 ft
Atlanta Summit 0 in 7580 ft
Sheep Mountain 0 in 6570 ft

Earthquake Activity

City Distance Mag. Time & Date
No recent earthquake activity has been reported nearby.
Minimum magnitude displayed is 2.5.

Coastal Water Temperatures

Place Temperature
No Stations Reporting

Nearby Weather Stations